sensor_id;sensor_type;location;lat;lon;timestamp;P1;durP1;ratioP1;P2;durP2;ratioP2
5460;SDS011;2753;49.196;8.286;2022-10-16T00:01:25;4.83;;;2.00;;
5460;SDS011;2753;49.196;8.286;2022-10-16T00:03:52;6.30;;;1.90;;
5460;SDS011;2753;49.196;8.286;2022-10-16T00:06:19;4.03;;;1.80;;
5460;SDS011;2753;49.196;8.286;2022-10-16T00:08:46;5.80;;;1.63;;
5460;SDS011;2753;49.196;8.286;2022-10-16T00:11:15;6.30;;;2.00;;
5460;SDS011;2753;49.196;8.286;2022-10-16T00:14:01;1.77;;;1.63;;
5460;SDS011;2753;49.196;8.286;2022-10-16T00:16:29;5.13;;;2.27;;
5460;SDS011;2753;49.196;8.286;2022-10-16T00:18:55;8.00;;;1.80;;
5460;SDS011;2753;49.196;8.286;2022-10-16T00:21:22;3.67;;;1.73;;
5460;SDS011;2753;49.196;8.286;2022-10-16T00:23:54;3.70;;;1.63;;
5460;SDS011;2753;49.196;8.286;2022-10-16T00:26:22;16.67;;;1.80;;
5460;SDS011;2753;49.196;8.286;2022-10-16T00:28:49;7.30;;;1.97;;
5460;SDS011;2753;49.196;8.286;2022-10-16T00:31:16;8.00;;;1.93;;
5460;SDS011;2753;49.196;8.286;2022-10-16T00:33:44;4.50;;;2.23;;
5460;SDS011;2753;49.196;8.286;2022-10-16T00:36:11;10.97;;;2.17;;
5460;SDS011;2753;49.196;8.286;2022-10-16T00:38:39;4.10;;;2.10;;
5460;SDS011;2753;49.196;8.286;2022-10-16T00:41:05;5.70;;;2.30;;
5460;SDS011;2753;49.196;8.286;2022-10-16T00:49:15;2.60;;;2.07;;
5460;SDS011;2753;49.196;8.286;2022-10-16T00:51:50;5.80;;;1.57;;
5460;SDS011;2753;49.196;8.286;2022-10-16T00:54:22;2.13;;;1.93;;
5460;SDS011;2753;49.196;8.286;2022-10-16T00:56:53;3.70;;;2.17;;
5460;SDS011;2753;49.196;8.286;2022-10-16T00:59:20;3.73;;;1.90;;
5460;SDS011;2753;49.196;8.286;2022-10-16T01:01:55;6.53;;;2.40;;
5460;SDS011;2753;49.196;8.286;2022-10-16T01:04:22;3.57;;;2.90;;
5460;SDS011;2753;49.196;8.286;2022-10-16T01:28:41;1.93;;;1.83;;
5460;SDS011;2753;49.196;8.286;2022-10-16T01:31:17;5.83;;;2.53;;
5460;SDS011;2753;49.196;8.286;2022-10-16T01:33:48;2.90;;;2.67;;
5460;SDS011;2753;49.196;8.286;2022-10-16T01:36:23;6.40;;;2.60;;
5460;SDS011;2753;49.196;8.286;2022-10-16T01:38:54;6.80;;;3.50;;
5460;SDS011;2753;49.196;8.286;2022-10-16T01:41:26;3.43;;;2.80;;
5460;SDS011;2753;49.196;8.286;2022-10-16T01:44:05;3.23;;;2.93;;
5460;SDS011;2753;49.196;8.286;2022-10-16T01:46:52;4.67;;;2.20;;
5460;SDS011;2753;49.196;8.286;2022-10-16T01:49:20;6.53;;;3.00;;
5460;SDS011;2753;49.196;8.286;2022-10-16T01:51:49;7.03;;;2.13;;
5460;SDS011;2753;49.196;8.286;2022-10-16T01:54:19;12.60;;;2.50;;
5460;SDS011;2753;49.196;8.286;2022-10-16T01:56:47;7.43;;;2.60;;
5460;SDS011;2753;49.196;8.286;2022-10-16T01:59:16;11.70;;;2.87;;
5460;SDS011;2753;49.196;8.286;2022-10-16T02:01:46;6.50;;;2.43;;
5460;SDS011;2753;49.196;8.286;2022-10-16T02:04:17;8.53;;;2.80;;
5460;SDS011;2753;49.196;8.286;2022-10-16T02:06:47;4.50;;;2.73;;
5460;SDS011;2753;49.196;8.286;2022-10-16T02:09:12;2.60;;;2.40;;
5460;SDS011;2753;49.196;8.286;2022-10-16T02:11:40;3.00;;;1.87;;
5460;SDS011;2753;49.196;8.286;2022-10-16T02:14:06;15.93;;;2.60;;
5460;SDS011;2753;49.196;8.286;2022-10-16T02:16:43;7.20;;;2.30;;
5460;SDS011;2753;49.196;8.286;2022-10-16T02:19:09;2.90;;;1.90;;
5460;SDS011;2753;49.196;8.286;2022-10-16T02:21:42;3.83;;;2.10;;
5460;SDS011;2753;49.196;8.286;2022-10-16T02:29:40;2.87;;;2.07;;
5460;SDS011;2753;49.196;8.286;2022-10-16T02:32:13;3.77;;;2.17;;
5460;SDS011;2753;49.196;8.286;2022-10-16T02:34:41;5.03;;;2.70;;
5460;SDS011;2753;49.196;8.286;2022-10-16T02:37:07;6.67;;;2.83;;
5460;SDS011;2753;49.196;8.286;2022-10-16T02:39:33;4.43;;;2.30;;
5460;SDS011;2753;49.196;8.286;2022-10-16T02:41:59;2.60;;;2.40;;
5460;SDS011;2753;49.196;8.286;2022-10-16T02:44:25;6.03;;;2.27;;
5460;SDS011;2753;49.196;8.286;2022-10-16T02:46:51;7.20;;;2.07;;
5460;SDS011;2753;49.196;8.286;2022-10-16T02:49:16;1.90;;;1.73;;
5460;SDS011;2753;49.196;8.286;2022-10-16T02:51:43;3.53;;;2.30;;
5460;SDS011;2753;49.196;8.286;2022-10-16T02:54:08;3.23;;;2.13;;
5460;SDS011;2753;49.196;8.286;2022-10-16T02:56:34;2.10;;;2.00;;
5460;SDS011;2753;49.196;8.286;2022-10-16T02:59:00;7.20;;;2.47;;
5460;SDS011;2753;49.196;8.286;2022-10-16T03:01:25;2.60;;;2.00;;
5460;SDS011;2753;49.196;8.286;2022-10-16T03:03:51;4.60;;;2.20;;
5460;SDS011;2753;49.196;8.286;2022-10-16T03:06:16;10.93;;;2.83;;
5460;SDS011;2753;49.196;8.286;2022-10-16T03:08:43;5.40;;;2.90;;
5460;SDS011;2753;49.196;8.286;2022-10-16T03:11:08;7.70;;;3.00;;
5460;SDS011;2753;49.196;8.286;2022-10-16T03:13:34;4.00;;;2.87;;
5460;SDS011;2753;49.196;8.286;2022-10-16T03:16:00;12.97;;;2.60;;
5460;SDS011;2753;49.196;8.286;2022-10-16T03:18:25;7.33;;;2.50;;
5460;SDS011;2753;49.196;8.286;2022-10-16T03:20:51;4.10;;;2.13;;
5460;SDS011;2753;49.196;8.286;2022-10-16T03:23:17;2.47;;;2.30;;
5460;SDS011;2753;49.196;8.286;2022-10-16T03:25:42;3.27;;;2.60;;
5460;SDS011;2753;49.196;8.286;2022-10-16T03:28:08;9.37;;;2.40;;
5460;SDS011;2753;49.196;8.286;2022-10-16T03:30:34;2.43;;;2.30;;
5460;SDS011;2753;49.196;8.286;2022-10-16T03:32:59;7.00;;;2.87;;
5460;SDS011;2753;49.196;8.286;2022-10-16T03:35:25;5.33;;;2.80;;
5460;SDS011;2753;49.196;8.286;2022-10-16T03:37:51;3.60;;;2.50;;
5460;SDS011;2753;49.196;8.286;2022-10-16T03:40:17;11.40;;;2.37;;
5460;SDS011;2753;49.196;8.286;2022-10-16T03:42:43;5.40;;;2.50;;
5460;SDS011;2753;49.196;8.286;2022-10-16T03:45:09;6.53;;;2.60;;
5460;SDS011;2753;49.196;8.286;2022-10-16T03:47:35;2.80;;;2.40;;
5460;SDS011;2753;49.196;8.286;2022-10-16T03:50:01;3.07;;;2.63;;
5460;SDS011;2753;49.196;8.286;2022-10-16T03:52:27;3.63;;;2.13;;
5460;SDS011;2753;49.196;8.286;2022-10-16T03:54:53;6.27;;;2.60;;
5460;SDS011;2753;49.196;8.286;2022-10-16T03:57:19;11.40;;;2.90;;
5460;SDS011;2753;49.196;8.286;2022-10-16T03:59:45;3.93;;;3.13;;
5460;SDS011;2753;49.196;8.286;2022-10-16T04:02:11;6.20;;;2.73;;
5460;SDS011;2753;49.196;8.286;2022-10-16T04:04:37;7.77;;;3.00;;
5460;SDS011;2753;49.196;8.286;2022-10-16T04:07:03;5.63;;;2.63;;
5460;SDS011;2753;49.196;8.286;2022-10-16T04:09:28;8.20;;;3.07;;
5460;SDS011;2753;49.196;8.286;2022-10-16T04:11:54;3.83;;;2.33;;
5460;SDS011;2753;49.196;8.286;2022-10-16T04:14:20;6.10;;;2.50;;
5460;SDS011;2753;49.196;8.286;2022-10-16T04:16:45;4.83;;;2.63;;
5460;SDS011;2753;49.196;8.286;2022-10-16T04:19:11;4.70;;;2.80;;
5460;SDS011;2753;49.196;8.286;2022-10-16T04:21:37;8.00;;;2.70;;
5460;SDS011;2753;49.196;8.286;2022-10-16T04:24:03;2.77;;;2.40;;
5460;SDS011;2753;49.196;8.286;2022-10-16T04:26:28;5.20;;;2.90;;
5460;SDS011;2753;49.196;8.286;2022-10-16T04:28:54;4.40;;;2.47;;
5460;SDS011;2753;49.196;8.286;2022-10-16T04:31:20;4.57;;;2.30;;
5460;SDS011;2753;49.196;8.286;2022-10-16T04:33:46;8.50;;;2.93;;
5460;SDS011;2753;49.196;8.286;2022-10-16T04:36:12;7.33;;;3.03;;
5460;SDS011;2753;49.196;8.286;2022-10-16T04:38:38;6.20;;;2.63;;
5460;SDS011;2753;49.196;8.286;2022-10-16T04:41:05;2.90;;;2.27;;
5460;SDS011;2753;49.196;8.286;2022-10-16T04:43:32;3.33;;;2.30;;
5460;SDS011;2753;49.196;8.286;2022-10-16T04:45:58;13.00;;;2.80;;
5460;SDS011;2753;49.196;8.286;2022-10-16T04:48:24;8.57;;;2.60;;
5460;SDS011;2753;49.196;8.286;2022-10-16T04:50:49;8.10;;;2.50;;
5460;SDS011;2753;49.196;8.286;2022-10-16T04:53:15;13.27;;;3.17;;
5460;SDS011;2753;49.196;8.286;2022-10-16T04:55:42;6.30;;;2.70;;
5460;SDS011;2753;49.196;8.286;2022-10-16T04:58:08;3.77;;;3.43;;
5460;SDS011;2753;49.196;8.286;2022-10-16T05:00:34;6.73;;;4.27;;
5460;SDS011;2753;49.196;8.286;2022-10-16T05:03:00;3.83;;;3.03;;
5460;SDS011;2753;49.196;8.286;2022-10-16T05:05:26;3.87;;;2.90;;
5460;SDS011;2753;49.196;8.286;2022-10-16T05:07:52;10.90;;;3.50;;
5460;SDS011;2753;49.196;8.286;2022-10-16T05:10:18;9.00;;;3.80;;
5460;SDS011;2753;49.196;8.286;2022-10-16T05:12:44;5.13;;;3.07;;
5460;SDS011;2753;49.196;8.286;2022-10-16T05:15:11;8.03;;;2.63;;
5460;SDS011;2753;49.196;8.286;2022-10-16T05:17:37;6.20;;;2.77;;
5460;SDS011;2753;49.196;8.286;2022-10-16T05:20:03;3.47;;;3.20;;
5460;SDS011;2753;49.196;8.286;2022-10-16T05:22:29;4.27;;;2.53;;
5460;SDS011;2753;49.196;8.286;2022-10-16T05:24:55;5.97;;;2.87;;
5460;SDS011;2753;49.196;8.286;2022-10-16T05:27:20;7.63;;;2.20;;
5460;SDS011;2753;49.196;8.286;2022-10-16T05:29:46;13.13;;;2.77;;
5460;SDS011;2753;49.196;8.286;2022-10-16T05:32:16;5.43;;;2.70;;
5460;SDS011;2753;49.196;8.286;2022-10-16T05:34:42;7.30;;;3.07;;
5460;SDS011;2753;49.196;8.286;2022-10-16T05:37:09;6.90;;;2.97;;
5460;SDS011;2753;49.196;8.286;2022-10-16T05:39:36;2.33;;;2.23;;
5460;SDS011;2753;49.196;8.286;2022-10-16T05:42:02;8.23;;;3.00;;
5460;SDS011;2753;49.196;8.286;2022-10-16T05:44:27;7.70;;;3.27;;
5460;SDS011;2753;49.196;8.286;2022-10-16T05:46:53;19.27;;;5.03;;
5460;SDS011;2753;49.196;8.286;2022-10-16T05:49:19;5.63;;;3.23;;
5460;SDS011;2753;49.196;8.286;2022-10-16T05:51:44;3.67;;;3.13;;
5460;SDS011;2753;49.196;8.286;2022-10-16T05:54:10;8.33;;;3.67;;
5460;SDS011;2753;49.196;8.286;2022-10-16T05:56:36;8.33;;;2.80;;
5460;SDS011;2753;49.196;8.286;2022-10-16T05:59:02;3.17;;;2.87;;
5460;SDS011;2753;49.196;8.286;2022-10-16T06:01:29;8.23;;;3.63;;
5460;SDS011;2753;49.196;8.286;2022-10-16T06:03:56;15.87;;;3.67;;
5460;SDS011;2753;49.196;8.286;2022-10-16T06:06:22;8.53;;;3.30;;
5460;SDS011;2753;49.196;8.286;2022-10-16T06:08:51;10.63;;;2.80;;
5460;SDS011;2753;49.196;8.286;2022-10-16T06:11:18;7.07;;;3.40;;
5460;SDS011;2753;49.196;8.286;2022-10-16T06:13:50;3.50;;;3.20;;
5460;SDS011;2753;49.196;8.286;2022-10-16T06:16:17;4.00;;;3.10;;
5460;SDS011;2753;49.196;8.286;2022-10-16T06:18:43;5.13;;;3.50;;
5460;SDS011;2753;49.196;8.286;2022-10-16T06:21:09;4.07;;;3.27;;
5460;SDS011;2753;49.196;8.286;2022-10-16T06:23:37;3.77;;;2.60;;
5460;SDS011;2753;49.196;8.286;2022-10-16T06:26:06;7.43;;;2.50;;
5460;SDS011;2753;49.196;8.286;2022-10-16T06:28:33;3.50;;;3.10;;
5460;SDS011;2753;49.196;8.286;2022-10-16T06:30:59;3.10;;;2.80;;
5460;SDS011;2753;49.196;8.286;2022-10-16T06:33:26;11.77;;;2.80;;
5460;SDS011;2753;49.196;8.286;2022-10-16T06:35:51;6.57;;;3.10;;
5460;SDS011;2753;49.196;8.286;2022-10-16T06:38:17;8.67;;;4.00;;
5460;SDS011;2753;49.196;8.286;2022-10-16T06:40:43;5.53;;;3.10;;
5460;SDS011;2753;49.196;8.286;2022-10-16T06:43:08;9.50;;;2.53;;
5460;SDS011;2753;49.196;8.286;2022-10-16T06:45:36;9.77;;;3.10;;
5460;SDS011;2753;49.196;8.286;2022-10-16T06:48:02;4.40;;;2.80;;
5460;SDS011;2753;49.196;8.286;2022-10-16T06:50:27;7.43;;;3.40;;
5460;SDS011;2753;49.196;8.286;2022-10-16T06:52:53;10.73;;;3.60;;
5460;SDS011;2753;49.196;8.286;2022-10-16T06:55:19;12.93;;;3.43;;
5460;SDS011;2753;49.196;8.286;2022-10-16T06:57:46;3.57;;;3.37;;
5460;SDS011;2753;49.196;8.286;2022-10-16T07:00:13;7.03;;;4.17;;
5460;SDS011;2753;49.196;8.286;2022-10-16T07:02:39;4.40;;;3.57;;
5460;SDS011;2753;49.196;8.286;2022-10-16T07:05:05;8.10;;;3.90;;
5460;SDS011;2753;49.196;8.286;2022-10-16T07:07:31;6.30;;;4.07;;
5460;SDS011;2753;49.196;8.286;2022-10-16T07:09:56;6.80;;;3.60;;
5460;SDS011;2753;49.196;8.286;2022-10-16T07:12:22;5.83;;;4.07;;
5460;SDS011;2753;49.196;8.286;2022-10-16T07:14:48;10.23;;;7.27;;
5460;SDS011;2753;49.196;8.286;2022-10-16T07:17:17;7.30;;;6.03;;
5460;SDS011;2753;49.196;8.286;2022-10-16T07:19:42;8.50;;;5.73;;
5460;SDS011;2753;49.196;8.286;2022-10-16T07:22:08;8.77;;;6.20;;
5460;SDS011;2753;49.196;8.286;2022-10-16T07:24:34;11.23;;;3.80;;
5460;SDS011;2753;49.196;8.286;2022-10-16T07:26:59;8.10;;;3.27;;
5460;SDS011;2753;49.196;8.286;2022-10-16T07:29:25;5.57;;;3.57;;
5460;SDS011;2753;49.196;8.286;2022-10-16T07:31:51;5.00;;;2.90;;
5460;SDS011;2753;49.196;8.286;2022-10-16T07:34:17;3.30;;;3.10;;
5460;SDS011;2753;49.196;8.286;2022-10-16T07:36:44;8.90;;;4.07;;
5460;SDS011;2753;49.196;8.286;2022-10-16T07:39:12;7.87;;;3.10;;
5460;SDS011;2753;49.196;8.286;2022-10-16T07:41:38;4.87;;;3.60;;
5460;SDS011;2753;49.196;8.286;2022-10-16T07:44:03;4.87;;;3.03;;
5460;SDS011;2753;49.196;8.286;2022-10-16T07:46:29;4.73;;;3.13;;
5460;SDS011;2753;49.196;8.286;2022-10-16T07:48:55;2.90;;;2.70;;
5460;SDS011;2753;49.196;8.286;2022-10-16T07:51:22;5.57;;;3.83;;
5460;SDS011;2753;49.196;8.286;2022-10-16T07:53:50;4.43;;;3.30;;
5460;SDS011;2753;49.196;8.286;2022-10-16T07:56:16;6.70;;;3.20;;
5460;SDS011;2753;49.196;8.286;2022-10-16T07:58:42;6.93;;;2.80;;
5460;SDS011;2753;49.196;8.286;2022-10-16T08:01:09;9.63;;;3.70;;
5460;SDS011;2753;49.196;8.286;2022-10-16T08:03:37;3.03;;;2.83;;
5460;SDS011;2753;49.196;8.286;2022-10-16T08:06:06;3.43;;;3.10;;
5460;SDS011;2753;49.196;8.286;2022-10-16T08:08:32;10.43;;;3.90;;
5460;SDS011;2753;49.196;8.286;2022-10-16T08:10:58;6.23;;;3.10;;
5460;SDS011;2753;49.196;8.286;2022-10-16T08:13:24;4.23;;;2.93;;
5460;SDS011;2753;49.196;8.286;2022-10-16T08:15:51;4.13;;;3.50;;
5460;SDS011;2753;49.196;8.286;2022-10-16T08:18:18;17.13;;;3.80;;
5460;SDS011;2753;49.196;8.286;2022-10-16T08:20:44;9.00;;;3.93;;
5460;SDS011;2753;49.196;8.286;2022-10-16T08:23:13;5.47;;;4.50;;
5460;SDS011;2753;49.196;8.286;2022-10-16T08:25:39;14.37;;;3.63;;
5460;SDS011;2753;49.196;8.286;2022-10-16T08:28:06;6.83;;;4.53;;
5460;SDS011;2753;49.196;8.286;2022-10-16T08:30:34;12.53;;;4.77;;
5460;SDS011;2753;49.196;8.286;2022-10-16T08:33:04;8.13;;;3.20;;
5460;SDS011;2753;49.196;8.286;2022-10-16T08:35:30;4.77;;;3.03;;
5460;SDS011;2753;49.196;8.286;2022-10-16T08:37:56;16.03;;;5.40;;
5460;SDS011;2753;49.196;8.286;2022-10-16T08:40:23;13.57;;;6.53;;
5460;SDS011;2753;49.196;8.286;2022-10-16T08:48:50;7.60;;;3.43;;
5460;SDS011;2753;49.196;8.286;2022-10-16T08:51:19;4.80;;;3.97;;
5460;SDS011;2753;49.196;8.286;2022-10-16T08:53:58;12.13;;;3.33;;
5460;SDS011;2753;49.196;8.286;2022-10-16T08:56:28;6.77;;;3.00;;
5460;SDS011;2753;49.196;8.286;2022-10-16T08:58:54;4.20;;;3.13;;
5460;SDS011;2753;49.196;8.286;2022-10-16T09:01:20;9.60;;;3.47;;
5460;SDS011;2753;49.196;8.286;2022-10-16T09:06:57;15.50;;;5.23;;
5460;SDS011;2753;49.196;8.286;2022-10-16T09:17:38;19.83;;;3.87;;
5460;SDS011;2753;49.196;8.286;2022-10-16T09:25:49;11.80;;;5.37;;
5460;SDS011;2753;49.196;8.286;2022-10-16T09:28:16;4.00;;;2.90;;
5460;SDS011;2753;49.196;8.286;2022-10-16T09:30:43;3.10;;;2.90;;
5460;SDS011;2753;49.196;8.286;2022-10-16T09:33:10;8.83;;;3.53;;
5460;SDS011;2753;49.196;8.286;2022-10-16T09:35:39;5.33;;;3.30;;
5460;SDS011;2753;49.196;8.286;2022-10-16T09:38:07;2.80;;;2.53;;
5460;SDS011;2753;49.196;8.286;2022-10-16T09:40:37;10.63;;;2.93;;
5460;SDS011;2753;49.196;8.286;2022-10-16T09:45:59;6.83;;;3.03;;
5460;SDS011;2753;49.196;8.286;2022-10-16T09:48:29;13.63;;;3.20;;
5460;SDS011;2753;49.196;8.286;2022-10-16T09:51:19;2.80;;;2.60;;
5460;SDS011;2753;49.196;8.286;2022-10-16T09:53:48;6.47;;;2.90;;
5460;SDS011;2753;49.196;8.286;2022-10-16T09:56:27;6.50;;;3.00;;
5460;SDS011;2753;49.196;8.286;2022-10-16T09:58:58;8.43;;;2.70;;
5460;SDS011;2753;49.196;8.286;2022-10-16T10:01:29;5.60;;;3.40;;
5460;SDS011;2753;49.196;8.286;2022-10-16T10:03:57;8.53;;;2.13;;
5460;SDS011;2753;49.196;8.286;2022-10-16T10:06:37;16.03;;;2.87;;
5460;SDS011;2753;49.196;8.286;2022-10-16T10:11:54;3.47;;;2.47;;
5460;SDS011;2753;49.196;8.286;2022-10-16T10:22:40;2.20;;;2.00;;
5460;SDS011;2753;49.196;8.286;2022-10-16T10:27:40;7.67;;;2.30;;
5460;SDS011;2753;49.196;8.286;2022-10-16T10:36:34;2.70;;;1.90;;
5460;SDS011;2753;49.196;8.286;2022-10-16T10:58:19;4.27;;;1.87;;
5460;SDS011;2753;49.196;8.286;2022-10-16T11:00:55;5.90;;;2.10;;
5460;SDS011;2753;49.196;8.286;2022-10-16T11:06:26;1.40;;;1.30;;
5460;SDS011;2753;49.196;8.286;2022-10-16T11:09:15;8.43;;;1.60;;
5460;SDS011;2753;49.196;8.286;2022-10-16T11:11:50;3.53;;;1.73;;
5460;SDS011;2753;49.196;8.286;2022-10-16T11:14:38;7.50;;;2.63;;
5460;SDS011;2753;49.196;8.286;2022-10-16T11:23:30;6.30;;;2.07;;
5460;SDS011;2753;49.196;8.286;2022-10-16T11:26:08;3.60;;;2.30;;
5460;SDS011;2753;49.196;8.286;2022-10-16T11:28:45;3.27;;;1.90;;
5460;SDS011;2753;49.196;8.286;2022-10-16T11:31:38;6.37;;;2.70;;
5460;SDS011;2753;49.196;8.286;2022-10-16T11:34:24;11.17;;;4.17;;
5460;SDS011;2753;49.196;8.286;2022-10-16T11:43:02;4.20;;;2.13;;
5460;SDS011;2753;49.196;8.286;2022-10-16T11:45:42;8.27;;;2.10;;
5460;SDS011;2753;49.196;8.286;2022-10-16T11:50:53;11.87;;;4.07;;
5460;SDS011;2753;49.196;8.286;2022-10-16T11:53:39;3.13;;;2.60;;
5460;SDS011;2753;49.196;8.286;2022-10-16T11:56:08;12.27;;;2.83;;
5460;SDS011;2753;49.196;8.286;2022-10-16T11:58:45;10.20;;;3.60;;
5460;SDS011;2753;49.196;8.286;2022-10-16T12:01:26;2.37;;;2.17;;
5460;SDS011;2753;49.196;8.286;2022-10-16T12:04:05;8.80;;;2.30;;
5460;SDS011;2753;49.196;8.286;2022-10-16T12:06:51;4.97;;;2.30;;
5460;SDS011;2753;49.196;8.286;2022-10-16T12:09:26;3.07;;;1.90;;
5460;SDS011;2753;49.196;8.286;2022-10-16T12:11:52;5.97;;;1.87;;
5460;SDS011;2753;49.196;8.286;2022-10-16T12:14:19;7.40;;;2.50;;
5460;SDS011;2753;49.196;8.286;2022-10-16T12:19:17;2.43;;;1.97;;
5460;SDS011;2753;49.196;8.286;2022-10-16T12:21:44;5.00;;;1.70;;
5460;SDS011;2753;49.196;8.286;2022-10-16T12:26:57;3.03;;;2.27;;
5460;SDS011;2753;49.196;8.286;2022-10-16T12:29:28;3.73;;;1.70;;
5460;SDS011;2753;49.196;8.286;2022-10-16T12:31:58;4.47;;;2.20;;
5460;SDS011;2753;49.196;8.286;2022-10-16T12:37:10;6.47;;;2.80;;
5460;SDS011;2753;49.196;8.286;2022-10-16T12:39:36;6.60;;;2.47;;
5460;SDS011;2753;49.196;8.286;2022-10-16T12:42:19;6.17;;;3.67;;
5460;SDS011;2753;49.196;8.286;2022-10-16T12:44:47;8.17;;;2.93;;
5460;SDS011;2753;49.196;8.286;2022-10-16T12:52:56;3.77;;;2.47;;
5460;SDS011;2753;49.196;8.286;2022-10-16T12:55:22;4.77;;;2.17;;
5460;SDS011;2753;49.196;8.286;2022-10-16T13:00:24;6.10;;;2.00;;
5460;SDS011;2753;49.196;8.286;2022-10-16T13:25:16;3.23;;;2.67;;
5460;SDS011;2753;49.196;8.286;2022-10-16T13:27:50;6.43;;;1.87;;
5460;SDS011;2753;49.196;8.286;2022-10-16T13:30:33;11.13;;;2.23;;
5460;SDS011;2753;49.196;8.286;2022-10-16T13:33:17;2.50;;;2.17;;
5460;SDS011;2753;49.196;8.286;2022-10-16T13:35:53;5.00;;;2.03;;
5460;SDS011;2753;49.196;8.286;2022-10-16T13:38:21;9.87;;;2.47;;
5460;SDS011;2753;49.196;8.286;2022-10-16T13:40:59;4.50;;;3.23;;
5460;SDS011;2753;49.196;8.286;2022-10-16T13:46:10;6.17;;;2.60;;
5460;SDS011;2753;49.196;8.286;2022-10-16T13:48:40;8.20;;;2.60;;
5460;SDS011;2753;49.196;8.286;2022-10-16T13:53:39;4.60;;;2.80;;
5460;SDS011;2753;49.196;8.286;2022-10-16T13:56:25;8.63;;;2.87;;
5460;SDS011;2753;49.196;8.286;2022-10-16T13:59:03;5.60;;;2.50;;
5460;SDS011;2753;49.196;8.286;2022-10-16T14:01:34;2.30;;;2.20;;
5460;SDS011;2753;49.196;8.286;2022-10-16T14:04:10;2.60;;;2.40;;
5460;SDS011;2753;49.196;8.286;2022-10-16T14:06:42;11.37;;;3.13;;
5460;SDS011;2753;49.196;8.286;2022-10-16T14:09:26;3.80;;;2.20;;
5460;SDS011;2753;49.196;8.286;2022-10-16T14:11:55;2.33;;;2.13;;
5460;SDS011;2753;49.196;8.286;2022-10-16T14:14:34;2.53;;;2.33;;
5460;SDS011;2753;49.196;8.286;2022-10-16T14:17:05;9.17;;;2.70;;
5460;SDS011;2753;49.196;8.286;2022-10-16T14:19:38;5.83;;;3.20;;
5460;SDS011;2753;49.196;8.286;2022-10-16T14:22:19;3.30;;;2.40;;
5460;SDS011;2753;49.196;8.286;2022-10-16T14:25:00;4.33;;;2.87;;
5460;SDS011;2753;49.196;8.286;2022-10-16T14:27:46;2.57;;;2.47;;
5460;SDS011;2753;49.196;8.286;2022-10-16T14:30:27;5.37;;;2.37;;
5460;SDS011;2753;49.196;8.286;2022-10-16T14:33:00;2.67;;;2.47;;
5460;SDS011;2753;49.196;8.286;2022-10-16T14:35:37;3.80;;;2.10;;
5460;SDS011;2753;49.196;8.286;2022-10-16T14:38:04;6.13;;;2.13;;
5460;SDS011;2753;49.196;8.286;2022-10-16T14:40:45;1.93;;;1.83;;
5460;SDS011;2753;49.196;8.286;2022-10-16T14:43:55;7.53;;;2.40;;
5460;SDS011;2753;49.196;8.286;2022-10-16T14:46:03;4.60;;;2.40;;
5460;SDS011;2753;49.196;8.286;2022-10-16T14:48:36;4.93;;;2.17;;
5460;SDS011;2753;49.196;8.286;2022-10-16T14:51:11;18.17;;;2.73;;
5460;SDS011;2753;49.196;8.286;2022-10-16T14:53:39;4.93;;;2.03;;
5460;SDS011;2753;49.196;8.286;2022-10-16T14:56:06;9.30;;;2.43;;
5460;SDS011;2753;49.196;8.286;2022-10-16T14:58:58;8.63;;;2.23;;
5460;SDS011;2753;49.196;8.286;2022-10-16T15:01:24;4.20;;;2.00;;
5460;SDS011;2753;49.196;8.286;2022-10-16T15:03:50;8.80;;;2.20;;
5460;SDS011;2753;49.196;8.286;2022-10-16T15:06:17;5.97;;;1.90;;
5460;SDS011;2753;49.196;8.286;2022-10-16T15:08:43;4.13;;;2.07;;
5460;SDS011;2753;49.196;8.286;2022-10-16T15:11:12;3.50;;;2.23;;
5460;SDS011;2753;49.196;8.286;2022-10-16T15:13:40;4.80;;;2.20;;
5460;SDS011;2753;49.196;8.286;2022-10-16T15:16:13;9.03;;;2.03;;
5460;SDS011;2753;49.196;8.286;2022-10-16T15:18:40;4.10;;;2.30;;
5460;SDS011;2753;49.196;8.286;2022-10-16T15:21:06;3.03;;;2.50;;
5460;SDS011;2753;49.196;8.286;2022-10-16T15:23:32;8.80;;;2.43;;
5460;SDS011;2753;49.196;8.286;2022-10-16T15:25:58;7.23;;;2.50;;
5460;SDS011;2753;49.196;8.286;2022-10-16T15:28:24;5.63;;;3.57;;
5460;SDS011;2753;49.196;8.286;2022-10-16T15:30:51;11.07;;;3.23;;
5460;SDS011;2753;49.196;8.286;2022-10-16T15:33:19;2.40;;;1.70;;
5460;SDS011;2753;49.196;8.286;2022-10-16T15:35:48;2.73;;;1.80;;
5460;SDS011;2753;49.196;8.286;2022-10-16T15:38:16;12.73;;;3.63;;
5460;SDS011;2753;49.196;8.286;2022-10-16T15:40:42;6.03;;;1.80;;
5460;SDS011;2753;49.196;8.286;2022-10-16T15:43:08;1.67;;;1.57;;
5460;SDS011;2753;49.196;8.286;2022-10-16T15:45:35;5.67;;;2.17;;
5460;SDS011;2753;49.196;8.286;2022-10-16T15:48:01;5.07;;;1.90;;
5460;SDS011;2753;49.196;8.286;2022-10-16T15:50:26;1.70;;;1.60;;
5460;SDS011;2753;49.196;8.286;2022-10-16T15:52:52;17.13;;;3.10;;
5460;SDS011;2753;49.196;8.286;2022-10-16T15:55:18;6.33;;;2.30;;
5460;SDS011;2753;49.196;8.286;2022-10-16T15:57:44;4.40;;;2.23;;
5460;SDS011;2753;49.196;8.286;2022-10-16T16:00:11;13.27;;;2.20;;
5460;SDS011;2753;49.196;8.286;2022-10-16T16:02:43;1.73;;;1.63;;
5460;SDS011;2753;49.196;8.286;2022-10-16T16:05:14;2.63;;;2.00;;
5460;SDS011;2753;49.196;8.286;2022-10-16T16:07:40;5.00;;;1.73;;
5460;SDS011;2753;49.196;8.286;2022-10-16T16:10:06;2.40;;;2.07;;
5460;SDS011;2753;49.196;8.286;2022-10-16T16:12:34;12.53;;;2.20;;
5460;SDS011;2753;49.196;8.286;2022-10-16T16:15:00;9.60;;;2.20;;
5460;SDS011;2753;49.196;8.286;2022-10-16T16:17:26;4.30;;;2.07;;
5460;SDS011;2753;49.196;8.286;2022-10-16T16:19:51;3.00;;;2.07;;
5460;SDS011;2753;49.196;8.286;2022-10-16T16:22:17;10.60;;;2.10;;
5460;SDS011;2753;49.196;8.286;2022-10-16T16:24:43;4.23;;;2.10;;
5460;SDS011;2753;49.196;8.286;2022-10-16T16:27:09;4.20;;;2.27;;
5460;SDS011;2753;49.196;8.286;2022-10-16T16:29:35;4.40;;;2.17;;
5460;SDS011;2753;49.196;8.286;2022-10-16T16:32:01;6.57;;;1.93;;
5460;SDS011;2753;49.196;8.286;2022-10-16T16:34:27;4.13;;;2.13;;
5460;SDS011;2753;49.196;8.286;2022-10-16T16:36:54;8.03;;;3.20;;
5460;SDS011;2753;49.196;8.286;2022-10-16T16:39:20;4.43;;;2.90;;
5460;SDS011;2753;49.196;8.286;2022-10-16T16:41:46;7.07;;;2.20;;
5460;SDS011;2753;49.196;8.286;2022-10-16T16:44:12;2.83;;;2.37;;
5460;SDS011;2753;49.196;8.286;2022-10-16T16:46:39;13.67;;;11.53;;
5460;SDS011;2753;49.196;8.286;2022-10-16T16:49:08;28.77;;;16.47;;
5460;SDS011;2753;49.196;8.286;2022-10-16T16:51:36;22.73;;;13.17;;
5460;SDS011;2753;49.196;8.286;2022-10-16T16:54:03;15.97;;;11.37;;
5460;SDS011;2753;49.196;8.286;2022-10-16T16:56:29;23.73;;;9.50;;
5460;SDS011;2753;49.196;8.286;2022-10-16T16:58:55;11.53;;;8.10;;
5460;SDS011;2753;49.196;8.286;2022-10-16T17:01:23;31.63;;;11.40;;
5460;SDS011;2753;49.196;8.286;2022-10-16T17:03:52;15.80;;;12.90;;
5460;SDS011;2753;49.196;8.286;2022-10-16T17:06:20;15.40;;;9.10;;
5460;SDS011;2753;49.196;8.286;2022-10-16T17:08:51;12.70;;;7.80;;
5460;SDS011;2753;49.196;8.286;2022-10-16T17:11:18;14.40;;;5.50;;
5460;SDS011;2753;49.196;8.286;2022-10-16T17:13:45;17.73;;;6.23;;
5460;SDS011;2753;49.196;8.286;2022-10-16T17:16:11;10.33;;;6.10;;
5460;SDS011;2753;49.196;8.286;2022-10-16T17:18:37;12.50;;;7.70;;
5460;SDS011;2753;49.196;8.286;2022-10-16T17:21:04;19.23;;;10.73;;
5460;SDS011;2753;49.196;8.286;2022-10-16T17:23:32;12.20;;;6.30;;
5460;SDS011;2753;49.196;8.286;2022-10-16T17:26:02;15.30;;;7.57;;
5460;SDS011;2753;49.196;8.286;2022-10-16T17:28:30;16.33;;;7.33;;
5460;SDS011;2753;49.196;8.286;2022-10-16T17:30:55;9.00;;;6.50;;
5460;SDS011;2753;49.196;8.286;2022-10-16T17:33:21;26.13;;;7.83;;
5460;SDS011;2753;49.196;8.286;2022-10-16T17:35:47;17.80;;;7.80;;
5460;SDS011;2753;49.196;8.286;2022-10-16T17:38:13;23.20;;;6.80;;
5460;SDS011;2753;49.196;8.286;2022-10-16T17:40:40;11.43;;;6.50;;
5460;SDS011;2753;49.196;8.286;2022-10-16T17:43:07;23.30;;;5.63;;
5460;SDS011;2753;49.196;8.286;2022-10-16T17:45:35;22.33;;;9.80;;
5460;SDS011;2753;49.196;8.286;2022-10-16T17:48:01;14.97;;;6.73;;
5460;SDS011;2753;49.196;8.286;2022-10-16T17:50:27;26.07;;;12.93;;
5460;SDS011;2753;49.196;8.286;2022-10-16T17:52:53;25.93;;;12.27;;
5460;SDS011;2753;49.196;8.286;2022-10-16T17:55:18;26.73;;;13.50;;
5460;SDS011;2753;49.196;8.286;2022-10-16T17:57:44;26.30;;;9.87;;
5460;SDS011;2753;49.196;8.286;2022-10-16T18:00:10;15.87;;;7.50;;
5460;SDS011;2753;49.196;8.286;2022-10-16T18:02:36;13.97;;;7.93;;